createdAt,value
2022-09-24T00:00:39.116Z,93.28
2022-09-24T00:02:40.154Z,93.3
2022-09-24T00:04:41.577Z,93.63
2022-09-24T00:06:43.253Z,94.09
2022-09-24T00:08:44.623Z,94.31
2022-09-24T00:10:46.251Z,94.34
2022-09-24T00:12:47.337Z,94.32
2022-09-24T00:14:49.181Z,94.41
2022-09-24T00:16:50.837Z,94.53
2022-09-24T00:18:52.761Z,94.68
2022-09-24T00:20:54.408Z,94.57
2022-09-24T00:22:55.501Z,94.61
2022-09-24T00:24:57.229Z,94.62
2022-09-24T00:26:58.553Z,94.55
2022-09-24T00:29:00.411Z,94.48
2022-09-24T00:33:03.235Z,94.5
2022-09-24T00:35:04.796Z,94.48
2022-09-24T00:37:05.791Z,94.44
2022-09-24T00:39:07.605Z,94.45
2022-09-24T00:41:08.569Z,94.5
2022-09-24T00:43:10.407Z,94.82
2022-09-24T00:45:12.150Z,94.85
2022-09-24T00:47:13.865Z,94.84
2022-09-24T00:49:14.855Z,94.75
2022-09-24T00:51:15.983Z,94.78
2022-09-24T00:53:17.177Z,94.83
2022-09-24T00:55:19.120Z,94.81
2022-09-24T00:57:20.948Z,94.76
2022-09-24T00:59:22.332Z,94.78
2022-09-24T01:01:24.195Z,94.78
2022-09-24T01:03:25.705Z,94.7
2022-09-24T01:05:27.294Z,94.72
2022-09-24T01:07:28.581Z,94.87
2022-09-24T01:09:29.854Z,94.97
2022-09-24T01:11:31.593Z,94.93
2022-09-24T01:15:35.080Z,94.97
2022-09-24T01:17:36.825Z,94.98
2022-09-24T01:19:37.944Z,95.15
2022-09-24T01:21:39.717Z,95.22
2022-09-24T01:23:42.777Z,95.23
2022-09-24T01:25:42.287Z,95.27
2022-09-24T01:27:44.054Z,95.32
2022-09-24T01:29:45.151Z,95.39
2022-09-24T01:31:46.819Z,95.56
2022-09-24T01:33:47.698Z,95.59
2022-09-24T01:35:49.496Z,95.71
2022-09-24T01:37:51.279Z,95.78
2022-09-24T01:39:52.513Z,95.78
2022-09-24T01:41:54.345Z,95.71
2022-09-24T01:43:55.976Z,95.61
2022-09-24T01:45:57.289Z,95.53
2022-09-24T01:47:58.578Z,95.6
2022-09-24T01:49:59.667Z,95.63
2022-09-24T01:52:00.720Z,95.7
2022-09-24T01:54:01.970Z,95.61
2022-09-24T01:58:04.779Z,95.43
2022-09-24T02:00:06.581Z,95.42
2022-09-24T02:02:08.548Z,95.42
2022-09-24T02:04:09.572Z,95.45
2022-09-24T02:06:10.909Z,95.5
2022-09-24T02:08:12.281Z,95.52
2022-09-24T02:10:13.977Z,95.55
2022-09-24T02:12:15.246Z,95.63
2022-09-24T02:14:16.955Z,95.8
2022-09-24T02:16:18.897Z,95.83
2022-09-24T02:18:19.935Z,95.79
2022-09-24T02:20:21.493Z,95.71
2022-09-24T02:22:22.832Z,95.66
2022-09-24T02:26:24.959Z,95.57
2022-09-24T02:28:26.860Z,95.56
2022-09-24T02:30:28.081Z,95.65
2022-09-24T02:32:29.109Z,95.76
2022-09-24T02:34:30.109Z,95.82
2022-09-24T02:36:31.275Z,95.83
2022-09-24T02:38:32.513Z,95.81
2022-09-24T02:41:18.200Z,96.03
2022-09-24T02:43:19.510Z,96.11
2022-09-24T02:45:21.137Z,96.1
2022-09-24T02:47:22.989Z,96.11
2022-09-24T02:51:26.746Z,96.23
2022-09-24T02:53:28.277Z,96.27
2022-09-24T02:55:30.205Z,96.36
2022-09-24T02:57:31.803Z,96.4
2022-09-24T02:59:33.782Z,96.42
2022-09-24T03:01:35.282Z,96.39
2022-09-24T03:03:36.707Z,96.38
2022-09-24T03:05:38.641Z,96.35
2022-09-24T03:07:39.766Z,96.32
2022-09-24T03:09:41.262Z,96.36
2022-09-24T03:11:43.053Z,96.38
2022-09-24T03:13:44.355Z,96.38
2022-09-24T03:15:46.278Z,96.46
2022-09-24T03:17:47.590Z,96.47
2022-09-24T03:19:48.727Z,96.52
2022-09-24T03:23:51.399Z,96.69
2022-09-24T03:25:52.923Z,96.71
2022-09-24T03:29:55.732Z,96.81
2022-09-24T03:31:57.656Z,96.83
2022-09-24T03:33:58.582Z,96.84
2022-09-24T03:36:00.149Z,96.87
2022-09-24T03:38:01.260Z,97.02
2022-09-24T03:40:03.140Z,97.01
2022-09-24T03:42:04.511Z,97
2022-09-24T03:44:06.281Z,97
2022-09-24T03:46:07.756Z,96.99
2022-09-24T03:48:08.935Z,96.97
2022-09-24T03:50:10.795Z,96.92
2022-09-24T03:52:12.670Z,96.96
2022-09-24T03:54:14.105Z,96.99
2022-09-24T03:56:15.740Z,97
2022-09-24T03:58:17.475Z,97.08
2022-09-24T04:00:19.311Z,97.03
2022-09-24T04:02:20.984Z,97.01
2022-09-24T04:04:22.125Z,97.01
2022-09-24T04:06:25.874Z,96.97
2022-09-24T04:08:24.745Z,97.06
2022-09-24T04:10:26.171Z,97.09
2022-09-24T04:12:27.903Z,97.1
2022-09-24T04:16:30.309Z,97.23
2022-09-24T04:18:34.688Z,97.2
2022-09-24T04:20:33.545Z,97.15
2022-09-24T04:22:35.106Z,97.12
2022-09-24T04:24:36.799Z,97.12
2022-09-24T04:26:37.815Z,97.28
2022-09-24T04:28:39.222Z,97.34
2022-09-24T04:30:40.713Z,97.27
2022-09-24T04:32:41.865Z,97.28
2022-09-24T04:34:43.835Z,97.36
2022-09-24T04:36:45.411Z,97.4
2022-09-24T04:38:46.978Z,97.37
2022-09-24T04:40:48.020Z,97.34
2022-09-24T04:42:49.395Z,97.3
2022-09-24T04:44:55.398Z,97.25
2022-09-24T04:46:52.914Z,97.19
2022-09-24T04:48:54.053Z,97.22
2022-09-24T04:50:55.926Z,97.17
2022-09-24T04:52:57.553Z,97.11
2022-09-24T04:54:59.169Z,97.18
2022-09-24T04:59:02.361Z,97.47
2022-09-24T05:01:03.856Z,97.51
2022-09-24T05:03:05.634Z,97.83
2022-09-24T05:05:06.990Z,97.89
2022-09-24T05:07:08.805Z,97.9
2022-09-24T05:09:12.525Z,97.92
2022-09-24T05:11:11.989Z,98.03
2022-09-24T05:13:13.007Z,98.02
2022-09-24T05:15:14.085Z,97.96
2022-09-24T05:17:15.297Z,97.88
2022-09-24T05:19:16.306Z,97.84
2022-09-24T05:21:18.089Z,97.89
2022-09-24T05:23:19.712Z,97.85
2022-09-24T05:25:20.930Z,97.71
2022-09-24T05:27:22.230Z,97.7
2022-09-24T05:31:25.195Z,97.76
2022-09-24T05:33:26.615Z,97.71
2022-09-24T05:35:28.224Z,97.68
2022-09-24T05:37:29.382Z,97.69
2022-09-24T05:41:32.284Z,97.69
2022-09-24T05:43:33.724Z,97.7
2022-09-24T05:45:35.032Z,97.71
2022-09-24T05:47:36.647Z,97.7
2022-09-24T05:49:38.517Z,97.71
2022-09-24T05:51:40.415Z,97.94
2022-09-24T05:53:41.449Z,97.96
2022-09-24T05:55:43.166Z,98.02
2022-09-24T05:57:44.168Z,98.06
2022-09-24T05:59:45.897Z,98.1
2022-09-24T06:01:47.013Z,98.35
2022-09-24T06:03:48.557Z,97.7
2022-09-24T06:05:49.588Z,96.56
2022-09-24T06:07:50.631Z,96.43
2022-09-24T06:09:52.130Z,96.69
2022-09-24T06:11:53.817Z,97.36
2022-09-24T06:13:55.746Z,97.01
2022-09-24T06:15:57.440Z,95.97
2022-09-24T06:17:59.040Z,93.22
2022-09-24T06:20:00.782Z,92.69
2022-09-24T06:22:02.282Z,91.03
2022-09-24T06:24:03.548Z,90.42
2022-09-24T06:26:04.532Z,90.56
2022-09-24T06:30:07.768Z,92.16
2022-09-24T06:32:09.636Z,92.94
2022-09-24T06:34:11.262Z,93.28
2022-09-24T06:36:13.043Z,93.4
2022-09-24T06:40:15.739Z,93.3
2022-09-24T06:42:17.186Z,94.16
2022-09-24T06:44:18.365Z,93.15
2022-09-24T06:46:19.958Z,92.16
2022-09-24T06:48:21.120Z,89.91
2022-09-24T06:50:22.863Z,89.4
2022-09-24T06:52:24.064Z,86.19
2022-09-24T06:54:25.866Z,85.2
2022-09-24T06:56:26.877Z,85.07
2022-09-24T06:58:28.053Z,83.83
2022-09-24T07:00:29.209Z,83.73
2022-09-24T07:02:30.462Z,84.64
2022-09-24T07:04:31.446Z,86.01
2022-09-24T07:06:33.172Z,87.87
2022-09-24T07:08:35.013Z,87.22
2022-09-24T07:10:36.425Z,87.89
2022-09-24T07:12:38.228Z,88.06
2022-09-24T07:14:39.545Z,89.05
2022-09-24T07:16:41.097Z,89.07
2022-09-24T07:18:42.415Z,89.06
2022-09-24T07:20:43.558Z,89.67
2022-09-24T07:24:47.120Z,91.13
2022-09-24T07:26:48.816Z,91.45
2022-09-24T07:28:50.397Z,91.2
2022-09-24T07:30:51.546Z,89.05
2022-09-24T07:32:53.089Z,88.99
2022-09-24T07:34:54.415Z,87.67
2022-09-24T07:36:56.205Z,86.2
2022-09-24T07:38:57.751Z,87.05
2022-09-24T07:40:59.445Z,87.41
2022-09-24T07:43:00.740Z,86.77
2022-09-24T07:45:02.078Z,86.04
2022-09-24T07:47:03.561Z,84.57
2022-09-24T07:49:04.414Z,84.46
2022-09-24T07:51:06.086Z,84.17
2022-09-24T07:53:07.617Z,84.94
2022-09-24T07:55:09.028Z,84.52
2022-09-24T07:57:10.412Z,84.95
2022-09-24T07:59:11.645Z,83.82
2022-09-24T08:01:13.173Z,82.59
2022-09-24T08:05:15.584Z,78.97
2022-09-24T08:07:16.708Z,79.93
2022-09-24T08:09:18.094Z,80.19
2022-09-24T08:11:19.257Z,81.18
2022-09-24T08:13:25.326Z,80.01
2022-09-24T08:15:22.942Z,79.8
2022-09-24T08:17:24.472Z,76.62
2022-09-24T08:19:26.274Z,76.85
2022-09-24T08:21:27.535Z,77.13
2022-09-24T08:23:28.537Z,75.83
2022-09-24T08:25:30.276Z,76.02
2022-09-24T08:27:31.713Z,76.58
2022-09-24T08:29:33.065Z,75.33
2022-09-24T08:31:35.850Z,75.98
2022-09-24T08:33:36.664Z,76.19
2022-09-24T08:35:38.465Z,76.39
2022-09-24T08:37:40.246Z,78
2022-09-24T08:39:41.962Z,77.12
2022-09-24T08:41:43.255Z,76.84
2022-09-24T08:43:44.953Z,76.02
2022-09-24T08:45:46.284Z,71.64
2022-09-24T08:47:47.169Z,72.03
2022-09-24T08:49:48.125Z,71.71
2022-09-24T08:51:49.932Z,71.68
2022-09-24T08:53:51.884Z,72.92
2022-09-24T08:55:53.001Z,73.67
2022-09-24T08:57:54.645Z,70.79
2022-09-24T08:59:56.280Z,70.93
2022-09-24T09:01:58.030Z,70.17
2022-09-24T09:03:59.309Z,71.61
2022-09-24T09:06:00.645Z,71.4
2022-09-24T09:08:01.844Z,71.83
2022-09-24T09:10:02.787Z,71.96
2022-09-24T09:12:04.214Z,72.22
2022-09-24T09:14:05.929Z,72.21
2022-09-24T09:16:07.195Z,72.56
2022-09-24T09:18:08.545Z,73.71
2022-09-24T09:20:09.615Z,72.7
2022-09-24T09:22:10.916Z,72.24
2022-09-24T09:24:12.039Z,70.3
2022-09-24T09:25:12.929Z,71.42
2022-09-24T09:27:14.025Z,71.25
2022-09-24T09:29:15.157Z,71.38
2022-09-24T09:31:16.849Z,72.1
2022-09-24T09:33:18.060Z,72
2022-09-24T09:35:19.695Z,70.69
2022-09-24T09:37:25.657Z,70.34
2022-09-24T09:39:22.505Z,71.23
2022-09-24T09:41:23.849Z,68.96
2022-09-24T09:43:25.018Z,68.96
2022-09-24T09:47:27.515Z,68.87
2022-09-24T09:49:28.676Z,68.22
2022-09-24T09:51:29.809Z,68.68
2022-09-24T09:57:34.149Z,70.92
2022-09-24T09:59:35.332Z,69.59
2022-09-24T10:01:36.290Z,68.89
2022-09-24T10:03:37.963Z,67.89
2022-09-24T10:05:39.411Z,68.42
2022-09-24T10:07:41.073Z,68.59
2022-09-24T10:09:42.621Z,68.83
2022-09-24T10:11:44.011Z,67.1
2022-09-24T10:13:45.693Z,67.29
2022-09-24T10:15:47.311Z,68.92
2022-09-24T10:17:49.097Z,68.02
2022-09-24T10:19:49.922Z,69.56
2022-09-24T10:21:50.861Z,69.37
2022-09-24T10:23:51.915Z,69.3
2022-09-24T10:25:52.931Z,69.26
2022-09-24T10:27:54.203Z,71.36
2022-09-24T10:29:55.344Z,70.61
2022-09-24T10:31:57.091Z,69.39
2022-09-24T10:33:58.379Z,69.91
2022-09-24T10:35:59.387Z,69.62
2022-09-24T10:38:00.627Z,69.75
2022-09-24T10:40:01.994Z,68.35
2022-09-24T10:42:02.874Z,67.53
2022-09-24T10:44:03.794Z,66.85
2022-09-24T10:46:05.136Z,66.65
2022-09-24T10:48:06.026Z,67.31
2022-09-24T10:50:07.140Z,66.26
2022-09-24T10:52:08.933Z,65.68
2022-09-24T10:56:11.700Z,65.27
2022-09-24T10:58:13.233Z,66.58
2022-09-24T11:00:14.620Z,65.44
2022-09-24T11:02:16.507Z,66.41
2022-09-24T11:04:18.073Z,69
2022-09-24T11:06:18.991Z,68.25
2022-09-24T11:08:20.062Z,67.84
2022-09-24T11:10:21.755Z,68.82
2022-09-24T11:12:23.521Z,65.65
2022-09-24T11:14:25.043Z,67.4
2022-09-24T11:16:26.244Z,64.2
2022-09-24T11:18:27.407Z,64.59
2022-09-24T11:20:29.116Z,67.14
2022-09-24T11:22:30.371Z,64.18
2022-09-24T11:24:31.689Z,63.9
2022-09-24T11:28:34.019Z,60.86
2022-09-24T11:30:34.926Z,61
2022-09-24T11:32:35.758Z,60.72
2022-09-24T11:34:36.759Z,59.64
2022-09-24T11:38:40.221Z,60.1
2022-09-24T11:40:41.198Z,58.69
2022-09-24T11:42:42.521Z,57
2022-09-24T11:44:43.354Z,56.63
2022-09-24T11:46:44.396Z,56.31
2022-09-24T11:48:45.512Z,55.67
2022-09-24T11:50:47.826Z,57.12
2022-09-24T11:52:48.441Z,57.94
2022-09-24T11:54:49.767Z,57.09
2022-09-24T11:56:51.407Z,57.11
2022-09-24T11:58:52.952Z,54.36
2022-09-24T12:00:54.463Z,57.57
2022-09-24T12:02:55.776Z,58.06
2022-09-24T12:04:57.444Z,58.9
2022-09-24T12:06:58.774Z,56.62
2022-09-24T12:08:59.540Z,58.52
2022-09-24T12:11:01.964Z,57.15
2022-09-24T12:13:03.737Z,58.21
2022-09-24T12:15:04.779Z,57.76
2022-09-24T12:17:05.986Z,58.92
2022-09-24T12:19:07.405Z,57.89
2022-09-24T12:21:08.777Z,56.42
2022-09-24T12:23:10.070Z,57.25
2022-09-24T12:27:13.252Z,59.13
2022-09-24T12:29:14.886Z,59.63
2022-09-24T12:33:18.598Z,59.02
2022-09-24T12:37:21.918Z,59.36
2022-09-24T12:39:23.264Z,56.1
2022-09-24T12:41:24.947Z,56.33
2022-09-24T12:43:26.619Z,56.97
2022-09-24T12:45:27.581Z,56.51
2022-09-24T12:47:28.856Z,58.46
2022-09-24T12:49:30.292Z,57.54
2022-09-24T12:51:31.356Z,57.51
2022-09-24T12:53:33.167Z,55.66
2022-09-24T12:55:34.638Z,55.4
2022-09-24T12:57:35.723Z,55.82
2022-09-24T12:59:37.290Z,56.74
2022-09-24T13:01:38.301Z,59.22
2022-09-24T13:03:43.340Z,57.97
2022-09-24T13:05:40.134Z,57.77
2022-09-24T13:07:42.457Z,57.32
2022-09-24T13:09:43.735Z,56.88
2022-09-24T13:11:44.712Z,58.74
2022-09-24T13:15:47.510Z,58.77
2022-09-24T13:17:48.465Z,60.06
2022-09-24T13:19:50.139Z,58.69
2022-09-24T13:21:51.486Z,59.36
2022-09-24T13:23:52.354Z,59.27
2022-09-24T13:25:53.330Z,59.59
2022-09-24T13:27:54.644Z,59.62
2022-09-24T13:29:55.912Z,60.08
2022-09-24T13:31:57.618Z,60.64
2022-09-24T13:33:58.993Z,61.01
2022-09-24T13:36:00.901Z,62.28
2022-09-24T13:38:02.350Z,62.09
2022-09-24T13:40:03.259Z,60.34
2022-09-24T13:42:04.370Z,57.66
2022-09-24T13:44:05.530Z,59.72
2022-09-24T13:46:06.867Z,57.89
2022-09-24T13:48:08.586Z,59.9
2022-09-24T13:52:10.998Z,61.88
2022-09-24T13:54:12.439Z,61.55
2022-09-24T13:56:14.164Z,62.28
2022-09-24T13:58:15.747Z,62.77
2022-09-24T14:02:18.240Z,62.03
2022-09-24T14:04:19.452Z,62.64
2022-09-24T14:06:20.426Z,65.01
2022-09-24T14:08:22.028Z,65.03
2022-09-24T14:10:23.044Z,64.46
2022-09-24T14:12:24.042Z,64.65
2022-09-24T14:14:24.948Z,64.83
2022-09-24T14:16:26.506Z,66.03
2022-09-24T14:18:27.608Z,65.8
2022-09-24T14:20:28.914Z,66.53
2022-09-24T14:22:30.307Z,65.98
2022-09-24T14:24:31.313Z,66.62
2022-09-24T14:26:32.287Z,67.23
2022-09-24T14:28:33.871Z,67.85
2022-09-24T14:30:35.114Z,68.39
2022-09-24T14:32:36.398Z,67.72
2022-09-24T14:34:37.239Z,68.61
2022-09-24T14:36:38.867Z,68.7
2022-09-24T14:38:40.171Z,68.71
2022-09-24T14:40:41.567Z,70.15
2022-09-24T14:42:42.987Z,70.53
2022-09-24T14:44:44.717Z,70.64
2022-09-24T14:46:45.881Z,70.71
2022-09-24T14:50:49.032Z,70.38
2022-09-24T14:52:50.707Z,71.31
2022-09-24T14:54:52.034Z,71.34
2022-09-24T14:56:53.822Z,71.14
2022-09-24T15:00:56.802Z,71.61
2022-09-24T15:02:58.415Z,71.98
2022-09-24T15:05:03.411Z,72.68
2022-09-24T15:07:01.459Z,72.04
2022-09-24T15:09:02.705Z,72.61
2022-09-24T15:11:03.818Z,73.19
2022-09-24T15:13:05.588Z,73.08
2022-09-24T15:15:07.439Z,72.75
2022-09-24T15:17:08.393Z,73.57
2022-09-24T15:19:09.793Z,73.24
2022-09-24T15:21:11.515Z,73.65
2022-09-24T15:23:12.973Z,74.78
2022-09-24T15:25:14.233Z,74.84
2022-09-24T15:27:15.283Z,75.37
2022-09-24T15:29:16.657Z,74.87
2022-09-24T15:31:17.824Z,74.43
2022-09-24T15:33:18.566Z,75.12
2022-09-24T15:35:19.593Z,75.05
2022-09-24T15:37:20.500Z,75.27
2022-09-24T15:39:22.101Z,75.05
2022-09-24T15:43:24.426Z,74.87
2022-09-24T15:45:26.051Z,76.13
2022-09-24T15:47:27.681Z,75.59
2022-09-24T15:49:28.895Z,75.55
2022-09-24T15:51:30.149Z,77.58
2022-09-24T15:53:31.837Z,78.04
2022-09-24T15:55:32.731Z,77.56
2022-09-24T15:57:34.292Z,79.09
2022-09-24T15:59:35.774Z,79.47
2022-09-24T16:01:37.054Z,80.65
2022-09-24T16:03:37.995Z,81.01
2022-09-24T16:05:39.601Z,81.03
2022-09-24T16:07:41.343Z,80.84
2022-09-24T16:09:42.395Z,80.2
2022-09-24T16:10:26.161Z,80.07
2022-09-24T16:12:27.118Z,81.38
2022-09-24T16:14:28.960Z,81.07
2022-09-24T16:16:30.441Z,82
2022-09-24T16:18:31.409Z,82.15
2022-09-24T16:20:32.950Z,82.54
2022-09-24T16:22:34.743Z,83.35
2022-09-24T16:24:36.555Z,84.26
2022-09-24T16:26:37.982Z,84.33
2022-09-24T16:28:39.525Z,84.2
2022-09-24T16:30:41.397Z,83.45
2022-09-24T16:32:42.571Z,83.23
2022-09-24T16:36:44.613Z,83.81
2022-09-24T16:38:46.057Z,83.55
2022-09-24T16:40:47.533Z,83.7
2022-09-24T16:42:49.197Z,83.57
2022-09-24T16:44:50.515Z,83.28
2022-09-24T16:46:51.473Z,83.4
2022-09-24T16:48:52.435Z,83
2022-09-24T16:50:53.420Z,83.47
2022-09-24T16:52:55.144Z,83.67
2022-09-24T16:54:56.988Z,83.91
2022-09-24T16:56:58.133Z,84.13
2022-09-24T16:58:59.667Z,84.15
2022-09-24T17:01:01.149Z,84.36
2022-09-24T17:03:02.265Z,84.71
2022-09-24T17:05:03.514Z,85.09
2022-09-24T17:07:04.535Z,84.86
2022-09-24T17:09:06.474Z,85.36
2022-09-24T17:11:07.294Z,85.7
2022-09-24T17:13:08.726Z,85.78
2022-09-24T17:15:10.605Z,85.93
2022-09-24T17:19:13.251Z,86.58
2022-09-24T17:21:14.133Z,86.57
2022-09-24T17:23:15.466Z,87.32
2022-09-24T17:25:16.533Z,87.89
2022-09-24T17:27:18.258Z,88.59
2022-09-24T17:29:19.219Z,89.04
2022-09-24T17:31:20.968Z,88.77
2022-09-24T17:33:42.171Z,88.69
2022-09-24T17:35:23.938Z,88.69
2022-09-24T17:37:25.218Z,88.53
2022-09-24T17:39:27.056Z,88.54
2022-09-24T17:41:28.844Z,88.74
2022-09-24T17:43:30.290Z,88.86
2022-09-24T17:45:32.174Z,89.41
2022-09-24T17:47:33.346Z,89.45
2022-09-24T17:49:34.813Z,89.76
2022-09-24T17:51:36.590Z,90.22
2022-09-24T17:53:38.343Z,90.14
2022-09-24T17:55:39.458Z,90.38
2022-09-24T17:57:41.204Z,90.96
2022-09-24T18:01:44.452Z,91.36
2022-09-24T18:03:45.741Z,91.65
2022-09-24T18:05:46.867Z,91.85
2022-09-24T18:07:48.312Z,91.88
2022-09-24T18:09:50.074Z,92.05
2022-09-24T18:11:51.204Z,92.19
2022-09-24T18:13:52.123Z,92.24
2022-09-24T18:17:53.939Z,92.65
2022-09-24T18:19:55.140Z,92.7
2022-09-24T18:21:57.027Z,92.8
2022-09-24T18:23:57.957Z,93.19
2022-09-24T18:25:59.151Z,93.66
2022-09-24T18:28:00.709Z,94.08
2022-09-24T18:30:02.530Z,94.12
2022-09-24T18:32:03.893Z,94.25
2022-09-24T18:34:05.602Z,94.35
2022-09-24T18:36:06.947Z,94.44
2022-09-24T18:38:08.552Z,94.57
2022-09-24T18:40:10.332Z,94.56
2022-09-24T18:44:13.191Z,94.54
2022-09-24T18:46:14.391Z,94.46
2022-09-24T18:48:15.763Z,94.38
2022-09-24T18:50:17.198Z,94.26
2022-09-24T18:52:18.963Z,94.23
2022-09-24T18:54:20.396Z,94.35
2022-09-24T18:56:22.171Z,94.61
2022-09-24T18:58:23.597Z,94.77
2022-09-24T19:00:24.441Z,94.89
2022-09-24T19:02:26.388Z,95.11
2022-09-24T19:04:31.800Z,95.37
2022-09-24T19:06:29.233Z,95.5
2022-09-24T19:08:30.550Z,95.51
2022-09-24T19:10:31.943Z,95.52
2022-09-24T19:12:33.225Z,95.55
2022-09-24T19:14:34.353Z,95.61
2022-09-24T19:16:36.083Z,95.7
2022-09-24T19:18:37.207Z,95.72
2022-09-24T19:20:38.130Z,95.76
2022-09-24T19:22:39.657Z,95.79
2022-09-24T19:24:41.441Z,95.75
2022-09-24T19:26:43.219Z,95.61
2022-09-24T19:28:44.941Z,95.68
2022-09-24T19:32:47.597Z,95.85
2022-09-24T19:34:49.365Z,95.9
2022-09-24T19:36:51.266Z,95.91
2022-09-24T19:38:52.805Z,95.9
2022-09-24T19:42:55.543Z,96.06
2022-09-24T19:44:56.705Z,96.21
2022-09-24T19:46:57.872Z,96.29
2022-09-24T19:48:59.091Z,96.25
2022-09-24T19:51:00.702Z,96.27
2022-09-24T19:55:03.155Z,96.42
2022-09-24T19:57:04.857Z,96.3
2022-09-24T19:59:05.903Z,95.87
2022-09-24T20:01:07.414Z,95.6
2022-09-24T20:03:09.039Z,95.56
2022-09-24T20:05:10.513Z,95.57
2022-09-24T20:07:12.004Z,95.88
2022-09-24T20:09:14.010Z,96.01
2022-09-24T20:11:15.702Z,96.09
2022-09-24T20:13:17.140Z,96.22
2022-09-24T20:15:18.572Z,96.2
2022-09-24T20:17:19.738Z,96.25
2022-09-24T20:19:21.504Z,96.25
2022-09-24T20:21:23.327Z,96.29
2022-09-24T20:25:25.968Z,96.44
2022-09-24T20:27:27.694Z,96.49
2022-09-24T20:29:28.775Z,96.54
2022-09-24T20:31:30.186Z,96.51
2022-09-24T20:33:31.015Z,96.51
2022-09-24T20:35:32.822Z,96.49
2022-09-24T20:37:34.347Z,96.56
2022-09-24T20:39:35.500Z,96.56
2022-09-24T20:41:36.817Z,96.58
2022-09-24T20:43:38.326Z,96.63
2022-09-24T20:45:39.957Z,96.76
2022-09-24T20:47:41.344Z,96.77
2022-09-24T20:49:42.282Z,96.75
2022-09-24T20:51:43.836Z,96.8
2022-09-24T20:53:45.020Z,96.9
2022-09-24T20:57:47.784Z,96.98
2022-09-24T20:59:48.827Z,96.99
2022-09-24T21:01:50.093Z,97.03
2022-09-24T21:03:51.594Z,97.1
2022-09-24T21:07:53.465Z,97.11
2022-09-24T21:09:54.777Z,97.1
2022-09-24T21:11:56.580Z,97.2
2022-09-24T21:13:58.397Z,97.2
2022-09-24T21:16:00.401Z,97.21
2022-09-24T21:18:21.538Z,97.21
2022-09-24T21:20:03.085Z,97.22
2022-09-24T21:22:04.028Z,97.28
2022-09-24T21:24:05.859Z,97.26
2022-09-24T21:26:07.055Z,97.25
2022-09-24T21:28:08.901Z,97.21
2022-09-24T21:30:10.561Z,97.21
2022-09-24T21:32:11.788Z,97.19
2022-09-24T21:34:13.391Z,97.23
2022-09-24T21:36:15.126Z,97.2
2022-09-24T21:38:16.945Z,97.06
2022-09-24T21:40:18.751Z,97.01
2022-09-24T21:42:19.823Z,97.12
2022-09-24T21:44:21.265Z,97.09
2022-09-24T21:46:23.027Z,97.12
2022-09-24T21:50:26.058Z,97.3
2022-09-24T21:52:27.391Z,97.31
2022-09-24T21:54:29.136Z,97.3
2022-09-24T21:56:30.272Z,97.3
2022-09-24T21:58:31.239Z,97.3
2022-09-24T22:00:32.873Z,97.33
2022-09-24T22:02:34.574Z,97.3
2022-09-24T22:04:36.160Z,97.27
2022-09-24T22:06:37.122Z,97.25
2022-09-24T22:08:38.808Z,97.28
2022-09-24T22:10:39.892Z,97.33
2022-09-24T22:12:41.049Z,97.35
2022-09-24T22:14:42.834Z,97.42
2022-09-24T22:16:44.118Z,97.37
2022-09-24T22:18:45.009Z,97.33
2022-09-24T22:20:46.299Z,97.28
2022-09-24T22:22:48.146Z,97.34
2022-09-24T22:24:49.537Z,97.32
2022-09-24T22:26:51.220Z,97.3
2022-09-24T22:28:53.119Z,97.29
2022-09-24T22:30:54.227Z,97.31
2022-09-24T22:32:55.668Z,97.31
2022-09-24T22:34:57.555Z,97.29
2022-09-24T22:39:00.236Z,97.23
2022-09-24T22:41:01.926Z,97.31
2022-09-24T22:43:03.059Z,97.34
2022-09-24T22:45:04.057Z,97.4
2022-09-24T22:49:06.591Z,97.47
2022-09-24T22:51:07.784Z,97.56
2022-09-24T22:53:08.779Z,97.55
2022-09-24T22:55:10.335Z,97.63
2022-09-24T22:55:54.098Z,97.62
2022-09-24T22:57:55.691Z,97.61
2022-09-24T22:59:57.423Z,97.63
2022-09-24T23:01:59.220Z,97.58
2022-09-24T23:04:00.893Z,97.58
2022-09-24T23:06:02.253Z,97.66
2022-09-24T23:08:03.316Z,97.72
2022-09-24T23:10:04.745Z,97.79
2022-09-24T23:12:06.416Z,97.8
2022-09-24T23:14:07.478Z,97.79
2022-09-24T23:16:08.504Z,97.79
2022-09-24T23:18:09.503Z,97.79
2022-09-24T23:20:10.937Z,97.79
2022-09-24T23:22:12.823Z,97.77
2022-09-24T23:26:16.894Z,97.77
2022-09-24T23:28:16.884Z,97.8
2022-09-24T23:30:18.266Z,97.8
2022-09-24T23:32:20.002Z,97.84
2022-09-24T23:34:21.186Z,97.91
2022-09-24T23:36:22.761Z,97.91
2022-09-24T23:38:24.531Z,97.91
2022-09-24T23:40:25.645Z,97.89
2022-09-24T23:42:26.514Z,97.96
2022-09-24T23:44:27.771Z,97.94
2022-09-24T23:46:29.273Z,97.92
2022-09-24T23:48:30.307Z,97.94
2022-09-24T23:50:31.578Z,97.88
2022-09-24T23:52:33.311Z,97.91
2022-09-24T23:54:35.099Z,97.97
2022-09-24T23:56:36.253Z,97.99
2022-09-24T23:58:37.900Z,97.99
